sensor_id;sensor_type;location;lat;lon;timestamp;P1;durP1;ratioP1;P2;durP2;ratioP2
44440;SDS011;30146;52.268;20.944;2023-03-11T00:01:18;32.20;;;18.20;;
44440;SDS011;30146;52.268;20.944;2023-03-11T00:03:48;33.40;;;19.70;;
44440;SDS011;30146;52.268;20.944;2023-03-11T00:06:19;32.40;;;17.80;;
44440;SDS011;30146;52.268;20.944;2023-03-11T00:08:50;31.50;;;18.40;;
44440;SDS011;30146;52.268;20.944;2023-03-11T00:11:21;33.20;;;18.80;;
44440;SDS011;30146;52.268;20.944;2023-03-11T00:13:52;38.80;;;17.90;;
44440;SDS011;30146;52.268;20.944;2023-03-11T00:16:22;27.40;;;16.40;;
44440;SDS011;30146;52.268;20.944;2023-03-11T00:18:53;35.50;;;19.30;;
44440;SDS011;30146;52.268;20.944;2023-03-11T00:21:25;29.50;;;16.80;;
44440;SDS011;30146;52.268;20.944;2023-03-11T00:23:56;27.70;;;16.00;;
44440;SDS011;30146;52.268;20.944;2023-03-11T00:26:28;32.00;;;15.50;;
44440;SDS011;30146;52.268;20.944;2023-03-11T00:28:59;27.40;;;15.60;;
44440;SDS011;30146;52.268;20.944;2023-03-11T00:31:30;28.70;;;16.10;;
44440;SDS011;30146;52.268;20.944;2023-03-11T00:34:00;31.70;;;16.10;;
44440;SDS011;30146;52.268;20.944;2023-03-11T00:36:32;29.90;;;15.40;;
44440;SDS011;30146;52.268;20.944;2023-03-11T00:39:03;27.10;;;15.20;;
44440;SDS011;30146;52.268;20.944;2023-03-11T00:41:34;28.20;;;15.00;;
44440;SDS011;30146;52.268;20.944;2023-03-11T00:44:06;27.60;;;15.50;;
44440;SDS011;30146;52.268;20.944;2023-03-11T00:46:37;28.60;;;14.80;;
44440;SDS011;30146;52.268;20.944;2023-03-11T00:49:07;24.60;;;14.00;;
44440;SDS011;30146;52.268;20.944;2023-03-11T00:51:38;27.50;;;16.10;;
44440;SDS011;30146;52.268;20.944;2023-03-11T00:54:10;33.70;;;16.50;;
44440;SDS011;30146;52.268;20.944;2023-03-11T00:56:41;34.10;;;16.20;;
44440;SDS011;30146;52.268;20.944;2023-03-11T00:59:12;30.80;;;15.40;;
44440;SDS011;30146;52.268;20.944;2023-03-11T01:01:43;27.20;;;15.80;;
44440;SDS011;30146;52.268;20.944;2023-03-11T01:04:14;27.50;;;14.50;;
44440;SDS011;30146;52.268;20.944;2023-03-11T01:06:45;30.40;;;16.10;;
44440;SDS011;30146;52.268;20.944;2023-03-11T01:09:16;33.40;;;16.20;;
44440;SDS011;30146;52.268;20.944;2023-03-11T01:11:47;31.10;;;16.50;;
44440;SDS011;30146;52.268;20.944;2023-03-11T01:14:18;28.70;;;14.50;;
44440;SDS011;30146;52.268;20.944;2023-03-11T01:16:49;26.90;;;14.40;;
44440;SDS011;30146;52.268;20.944;2023-03-11T01:19:22;29.20;;;16.00;;
44440;SDS011;30146;52.268;20.944;2023-03-11T01:21:54;31.70;;;15.30;;
44440;SDS011;30146;52.268;20.944;2023-03-11T01:24:25;28.30;;;15.80;;
44440;SDS011;30146;52.268;20.944;2023-03-11T01:26:55;29.90;;;15.40;;
44440;SDS011;30146;52.268;20.944;2023-03-11T01:29:26;30.30;;;17.30;;
44440;SDS011;30146;52.268;20.944;2023-03-11T01:31:57;31.30;;;16.30;;
44440;SDS011;30146;52.268;20.944;2023-03-11T01:34:28;32.30;;;16.80;;
44440;SDS011;30146;52.268;20.944;2023-03-11T01:37:00;36.50;;;14.50;;
44440;SDS011;30146;52.268;20.944;2023-03-11T01:39:31;33.60;;;15.30;;
44440;SDS011;30146;52.268;20.944;2023-03-11T01:42:03;27.10;;;13.90;;
44440;SDS011;30146;52.268;20.944;2023-03-11T01:44:34;29.50;;;15.40;;
44440;SDS011;30146;52.268;20.944;2023-03-11T01:50:04;30.80;;;15.70;;
44440;SDS011;30146;52.268;20.944;2023-03-11T01:52:39;30.60;;;14.70;;
44440;SDS011;30146;52.268;20.944;2023-03-11T01:55:12;29.60;;;15.70;;
44440;SDS011;30146;52.268;20.944;2023-03-11T01:57:45;29.10;;;16.00;;
44440;SDS011;30146;52.268;20.944;2023-03-11T02:00:18;26.50;;;14.40;;
44440;SDS011;30146;52.268;20.944;2023-03-11T02:02:51;25.70;;;14.40;;
44440;SDS011;30146;52.268;20.944;2023-03-11T02:05:25;30.30;;;15.70;;
44440;SDS011;30146;52.268;20.944;2023-03-11T02:07:56;25.50;;;14.00;;
44440;SDS011;30146;52.268;20.944;2023-03-11T02:10:30;27.20;;;13.90;;
44440;SDS011;30146;52.268;20.944;2023-03-11T02:13:02;27.30;;;14.40;;
44440;SDS011;30146;52.268;20.944;2023-03-11T02:15:34;26.90;;;14.80;;
44440;SDS011;30146;52.268;20.944;2023-03-11T02:18:07;30.40;;;14.30;;
44440;SDS011;30146;52.268;20.944;2023-03-11T02:20:44;26.80;;;13.70;;
44440;SDS011;30146;52.268;20.944;2023-03-11T02:23:21;21.80;;;12.80;;
44440;SDS011;30146;52.268;20.944;2023-03-11T02:25:59;22.70;;;12.30;;
44440;SDS011;30146;52.268;20.944;2023-03-11T02:28:35;27.30;;;13.10;;
44440;SDS011;30146;52.268;20.944;2023-03-11T02:31:07;27.60;;;13.80;;
44440;SDS011;30146;52.268;20.944;2023-03-11T02:33:39;23.80;;;13.70;;
44440;SDS011;30146;52.268;20.944;2023-03-11T02:36:30;22.40;;;12.10;;
44440;SDS011;30146;52.268;20.944;2023-03-11T02:39:04;25.00;;;12.80;;
44440;SDS011;30146;52.268;20.944;2023-03-11T02:41:38;21.80;;;12.10;;
44440;SDS011;30146;52.268;20.944;2023-03-11T02:44:12;22.40;;;11.30;;
44440;SDS011;30146;52.268;20.944;2023-03-11T02:46:44;21.50;;;12.30;;
44440;SDS011;30146;52.268;20.944;2023-03-11T02:49:16;22.90;;;11.90;;
44440;SDS011;30146;52.268;20.944;2023-03-11T02:51:48;21.10;;;11.40;;
44440;SDS011;30146;52.268;20.944;2023-03-11T02:54:19;23.90;;;13.20;;
44440;SDS011;30146;52.268;20.944;2023-03-11T02:56:50;27.70;;;12.90;;
44440;SDS011;30146;52.268;20.944;2023-03-11T02:59:26;22.40;;;11.90;;
44440;SDS011;30146;52.268;20.944;2023-03-11T03:01:57;22.00;;;11.80;;
44440;SDS011;30146;52.268;20.944;2023-03-11T03:04:29;21.60;;;11.00;;
44440;SDS011;30146;52.268;20.944;2023-03-11T03:07:01;21.60;;;11.50;;
44440;SDS011;30146;52.268;20.944;2023-03-11T03:09:32;21.20;;;10.10;;
44440;SDS011;30146;52.268;20.944;2023-03-11T03:12:04;16.80;;;9.60;;
44440;SDS011;30146;52.268;20.944;2023-03-11T03:14:36;20.20;;;11.60;;
44440;SDS011;30146;52.268;20.944;2023-03-11T03:17:07;23.40;;;10.40;;
44440;SDS011;30146;52.268;20.944;2023-03-11T03:19:39;16.20;;;10.00;;
44440;SDS011;30146;52.268;20.944;2023-03-11T03:22:12;14.90;;;8.50;;
44440;SDS011;30146;52.268;20.944;2023-03-11T03:24:43;16.40;;;8.50;;
44440;SDS011;30146;52.268;20.944;2023-03-11T03:27:15;17.80;;;8.20;;
44440;SDS011;30146;52.268;20.944;2023-03-11T03:29:46;18.10;;;9.00;;
44440;SDS011;30146;52.268;20.944;2023-03-11T03:32:17;14.30;;;7.60;;
44440;SDS011;30146;52.268;20.944;2023-03-11T03:34:48;14.60;;;7.30;;
44440;SDS011;30146;52.268;20.944;2023-03-11T03:37:32;11.20;;;6.80;;
44440;SDS011;30146;52.268;20.944;2023-03-11T03:40:06;12.70;;;6.40;;
44440;SDS011;30146;52.268;20.944;2023-03-11T03:42:39;11.50;;;6.00;;
44440;SDS011;30146;52.268;20.944;2023-03-11T03:45:11;12.00;;;6.00;;
44440;SDS011;30146;52.268;20.944;2023-03-11T03:47:43;11.70;;;6.20;;
44440;SDS011;30146;52.268;20.944;2023-03-11T03:50:14;8.50;;;5.70;;
44440;SDS011;30146;52.268;20.944;2023-03-11T03:52:46;11.50;;;6.10;;
44440;SDS011;30146;52.268;20.944;2023-03-11T03:55:17;13.50;;;6.50;;
44440;SDS011;30146;52.268;20.944;2023-03-11T03:57:49;8.40;;;5.40;;
44440;SDS011;30146;52.268;20.944;2023-03-11T04:00:21;12.20;;;6.50;;
44440;SDS011;30146;52.268;20.944;2023-03-11T04:02:55;13.00;;;6.50;;
44440;SDS011;30146;52.268;20.944;2023-03-11T04:05:39;12.60;;;7.00;;
44440;SDS011;30146;52.268;20.944;2023-03-11T04:08:11;10.30;;;6.70;;
44440;SDS011;30146;52.268;20.944;2023-03-11T04:10:42;14.80;;;6.10;;
44440;SDS011;30146;52.268;20.944;2023-03-11T04:13:13;13.50;;;6.40;;
44440;SDS011;30146;52.268;20.944;2023-03-11T04:15:45;12.70;;;6.40;;
44440;SDS011;30146;52.268;20.944;2023-03-11T04:18:16;11.80;;;6.30;;
44440;SDS011;30146;52.268;20.944;2023-03-11T04:20:47;10.60;;;6.90;;
44440;SDS011;30146;52.268;20.944;2023-03-11T04:23:18;14.40;;;7.30;;
44440;SDS011;30146;52.268;20.944;2023-03-11T04:25:49;14.90;;;7.80;;
44440;SDS011;30146;52.268;20.944;2023-03-11T04:28:20;11.60;;;6.70;;
44440;SDS011;30146;52.268;20.944;2023-03-11T04:30:51;10.90;;;6.40;;
44440;SDS011;30146;52.268;20.944;2023-03-11T04:33:22;10.20;;;6.80;;
44440;SDS011;30146;52.268;20.944;2023-03-11T04:35:54;9.40;;;6.40;;
44440;SDS011;30146;52.268;20.944;2023-03-11T04:38:25;12.50;;;6.80;;
44440;SDS011;30146;52.268;20.944;2023-03-11T04:40:59;12.00;;;6.70;;
44440;SDS011;30146;52.268;20.944;2023-03-11T04:43:31;14.30;;;7.40;;
44440;SDS011;30146;52.268;20.944;2023-03-11T04:46:03;10.60;;;7.00;;
44440;SDS011;30146;52.268;20.944;2023-03-11T04:48:35;11.20;;;6.70;;
44440;SDS011;30146;52.268;20.944;2023-03-11T04:51:07;10.90;;;6.60;;
44440;SDS011;30146;52.268;20.944;2023-03-11T04:53:38;14.90;;;7.00;;
44440;SDS011;30146;52.268;20.944;2023-03-11T04:56:10;12.30;;;6.30;;
44440;SDS011;30146;52.268;20.944;2023-03-11T04:58:42;10.30;;;6.30;;
44440;SDS011;30146;52.268;20.944;2023-03-11T05:01:13;15.20;;;7.00;;
44440;SDS011;30146;52.268;20.944;2023-03-11T05:03:44;12.30;;;6.50;;
44440;SDS011;30146;52.268;20.944;2023-03-11T05:06:16;11.50;;;7.00;;
44440;SDS011;30146;52.268;20.944;2023-03-11T05:08:47;15.80;;;9.30;;
44440;SDS011;30146;52.268;20.944;2023-03-11T05:11:19;23.90;;;11.60;;
44440;SDS011;30146;52.268;20.944;2023-03-11T05:13:50;15.50;;;8.60;;
44440;SDS011;30146;52.268;20.944;2023-03-11T05:16:21;13.60;;;6.60;;
44440;SDS011;30146;52.268;20.944;2023-03-11T05:18:53;11.10;;;6.40;;
44440;SDS011;30146;52.268;20.944;2023-03-11T05:21:24;10.50;;;6.30;;
44440;SDS011;30146;52.268;20.944;2023-03-11T05:23:55;10.50;;;6.10;;
44440;SDS011;30146;52.268;20.944;2023-03-11T05:26:26;12.10;;;6.80;;
44440;SDS011;30146;52.268;20.944;2023-03-11T05:28:57;15.60;;;6.20;;
44440;SDS011;30146;52.268;20.944;2023-03-11T05:31:28;13.90;;;6.30;;
44440;SDS011;30146;52.268;20.944;2023-03-11T05:34:02;12.30;;;6.50;;
44440;SDS011;30146;52.268;20.944;2023-03-11T05:36:33;11.20;;;5.50;;
44440;SDS011;30146;52.268;20.944;2023-03-11T05:39:05;13.90;;;6.50;;
44440;SDS011;30146;52.268;20.944;2023-03-11T05:41:36;10.60;;;6.10;;
44440;SDS011;30146;52.268;20.944;2023-03-11T05:44:07;10.60;;;6.50;;
44440;SDS011;30146;52.268;20.944;2023-03-11T05:46:38;11.40;;;7.40;;
44440;SDS011;30146;52.268;20.944;2023-03-11T05:49:10;10.60;;;7.60;;
44440;SDS011;30146;52.268;20.944;2023-03-11T05:51:41;9.80;;;5.80;;
44440;SDS011;30146;52.268;20.944;2023-03-11T05:54:12;8.70;;;6.10;;
44440;SDS011;30146;52.268;20.944;2023-03-11T05:56:46;9.60;;;5.00;;
44440;SDS011;30146;52.268;20.944;2023-03-11T05:59:18;10.50;;;5.80;;
44440;SDS011;30146;52.268;20.944;2023-03-11T06:01:54;10.70;;;5.20;;
44440;SDS011;30146;52.268;20.944;2023-03-11T06:04:25;9.60;;;5.20;;
44440;SDS011;30146;52.268;20.944;2023-03-11T06:06:57;11.00;;;5.40;;
44440;SDS011;30146;52.268;20.944;2023-03-11T06:09:30;7.50;;;5.20;;
44440;SDS011;30146;52.268;20.944;2023-03-11T06:12:04;6.80;;;4.80;;
44440;SDS011;30146;52.268;20.944;2023-03-11T06:14:48;8.70;;;5.10;;
44440;SDS011;30146;52.268;20.944;2023-03-11T06:17:21;15.90;;;6.00;;
44440;SDS011;30146;52.268;20.944;2023-03-11T06:19:53;7.10;;;5.10;;
44440;SDS011;30146;52.268;20.944;2023-03-11T06:22:24;7.20;;;5.20;;
44440;SDS011;30146;52.268;20.944;2023-03-11T06:24:55;8.50;;;4.60;;
44440;SDS011;30146;52.268;20.944;2023-03-11T06:27:26;8.70;;;5.70;;
44440;SDS011;30146;52.268;20.944;2023-03-11T06:29:57;10.60;;;5.90;;
44440;SDS011;30146;52.268;20.944;2023-03-11T06:32:31;10.60;;;5.70;;
44440;SDS011;30146;52.268;20.944;2023-03-11T06:35:05;7.30;;;5.10;;
44440;SDS011;30146;52.268;20.944;2023-03-11T06:37:37;9.90;;;6.00;;
44440;SDS011;30146;52.268;20.944;2023-03-11T06:40:09;8.00;;;5.40;;
44440;SDS011;30146;52.268;20.944;2023-03-11T06:42:41;10.30;;;5.80;;
44440;SDS011;30146;52.268;20.944;2023-03-11T06:45:14;8.60;;;5.50;;
44440;SDS011;30146;52.268;20.944;2023-03-11T06:47:48;8.90;;;5.90;;
44440;SDS011;30146;52.268;20.944;2023-03-11T06:50:20;9.10;;;6.10;;
44440;SDS011;30146;52.268;20.944;2023-03-11T06:52:52;10.50;;;6.00;;
44440;SDS011;30146;52.268;20.944;2023-03-11T06:55:23;10.40;;;5.80;;
44440;SDS011;30146;52.268;20.944;2023-03-11T06:57:54;10.00;;;6.20;;
44440;SDS011;30146;52.268;20.944;2023-03-11T07:00:26;13.20;;;7.20;;
44440;SDS011;30146;52.268;20.944;2023-03-11T07:02:59;10.00;;;6.00;;
44440;SDS011;30146;52.268;20.944;2023-03-11T07:05:30;7.90;;;5.20;;
44440;SDS011;30146;52.268;20.944;2023-03-11T07:08:04;7.60;;;5.30;;
44440;SDS011;30146;52.268;20.944;2023-03-11T07:10:36;12.30;;;6.20;;
44440;SDS011;30146;52.268;20.944;2023-03-11T07:13:07;10.00;;;6.60;;
44440;SDS011;30146;52.268;20.944;2023-03-11T07:15:38;12.00;;;7.10;;
44440;SDS011;30146;52.268;20.944;2023-03-11T07:18:09;11.90;;;6.80;;
44440;SDS011;30146;52.268;20.944;2023-03-11T07:20:41;12.40;;;8.50;;
44440;SDS011;30146;52.268;20.944;2023-03-11T07:23:12;9.60;;;7.20;;
44440;SDS011;30146;52.268;20.944;2023-03-11T07:25:45;8.70;;;6.20;;
44440;SDS011;30146;52.268;20.944;2023-03-11T07:28:23;9.80;;;5.90;;
44440;SDS011;30146;52.268;20.944;2023-03-11T07:30:56;10.50;;;6.40;;
44440;SDS011;30146;52.268;20.944;2023-03-11T07:33:30;7.80;;;5.90;;
44440;SDS011;30146;52.268;20.944;2023-03-11T07:36:05;7.90;;;6.20;;
44440;SDS011;30146;52.268;20.944;2023-03-11T07:38:38;9.60;;;5.90;;
44440;SDS011;30146;52.268;20.944;2023-03-11T07:41:10;8.50;;;6.40;;
44440;SDS011;30146;52.268;20.944;2023-03-11T07:43:44;12.30;;;6.80;;
44440;SDS011;30146;52.268;20.944;2023-03-11T07:46:16;13.20;;;6.40;;
44440;SDS011;30146;52.268;20.944;2023-03-11T07:48:51;10.40;;;6.40;;
44440;SDS011;30146;52.268;20.944;2023-03-11T07:51:23;9.80;;;7.10;;
44440;SDS011;30146;52.268;20.944;2023-03-11T07:53:55;9.00;;;7.40;;
44440;SDS011;30146;52.268;20.944;2023-03-11T07:56:28;9.70;;;7.60;;
44440;SDS011;30146;52.268;20.944;2023-03-11T07:59:01;12.50;;;8.10;;
44440;SDS011;30146;52.268;20.944;2023-03-11T08:01:33;10.60;;;8.60;;
44440;SDS011;30146;52.268;20.944;2023-03-11T08:04:08;11.60;;;8.70;;
44440;SDS011;30146;52.268;20.944;2023-03-11T08:06:42;12.20;;;8.90;;
44440;SDS011;30146;52.268;20.944;2023-03-11T08:09:14;10.40;;;8.40;;
44440;SDS011;30146;52.268;20.944;2023-03-11T08:11:45;10.90;;;8.90;;
44440;SDS011;30146;52.268;20.944;2023-03-11T08:14:17;11.80;;;8.30;;
44440;SDS011;30146;52.268;20.944;2023-03-11T08:16:48;9.00;;;7.80;;
44440;SDS011;30146;52.268;20.944;2023-03-11T08:19:19;11.00;;;7.70;;
44440;SDS011;30146;52.268;20.944;2023-03-11T08:21:50;14.50;;;8.70;;
44440;SDS011;30146;52.268;20.944;2023-03-11T08:24:21;10.80;;;8.30;;
44440;SDS011;30146;52.268;20.944;2023-03-11T08:26:52;11.40;;;9.10;;
44440;SDS011;30146;52.268;20.944;2023-03-11T08:29:24;11.70;;;8.10;;
44440;SDS011;30146;52.268;20.944;2023-03-11T08:31:55;9.30;;;8.30;;
44440;SDS011;30146;52.268;20.944;2023-03-11T08:34:28;11.80;;;8.00;;
44440;SDS011;30146;52.268;20.944;2023-03-11T08:37:01;9.20;;;7.70;;
44440;SDS011;30146;52.268;20.944;2023-03-11T08:39:32;11.10;;;7.80;;
44440;SDS011;30146;52.268;20.944;2023-03-11T08:42:03;10.30;;;8.00;;
44440;SDS011;30146;52.268;20.944;2023-03-11T08:44:35;10.40;;;8.40;;
44440;SDS011;30146;52.268;20.944;2023-03-11T08:47:06;14.00;;;7.90;;
44440;SDS011;30146;52.268;20.944;2023-03-11T08:49:37;11.50;;;8.10;;
44440;SDS011;30146;52.268;20.944;2023-03-11T08:52:08;12.00;;;8.60;;
44440;SDS011;30146;52.268;20.944;2023-03-11T08:54:39;10.10;;;8.40;;
44440;SDS011;30146;52.268;20.944;2023-03-11T08:57:10;9.70;;;8.00;;
44440;SDS011;30146;52.268;20.944;2023-03-11T08:59:41;11.10;;;8.90;;
44440;SDS011;30146;52.268;20.944;2023-03-11T09:02:12;11.50;;;8.80;;
44440;SDS011;30146;52.268;20.944;2023-03-11T09:04:43;11.70;;;8.00;;
44440;SDS011;30146;52.268;20.944;2023-03-11T09:07:14;12.40;;;9.40;;
44440;SDS011;30146;52.268;20.944;2023-03-11T09:09:45;11.80;;;9.00;;
44440;SDS011;30146;52.268;20.944;2023-03-11T09:12:17;12.70;;;9.20;;
44440;SDS011;30146;52.268;20.944;2023-03-11T09:14:48;12.00;;;9.70;;
44440;SDS011;30146;52.268;20.944;2023-03-11T09:17:19;15.20;;;10.40;;
44440;SDS011;30146;52.268;20.944;2023-03-11T09:19:51;14.70;;;12.00;;
44440;SDS011;30146;52.268;20.944;2023-03-11T09:22:22;20.30;;;12.60;;
44440;SDS011;30146;52.268;20.944;2023-03-11T09:24:53;27.60;;;18.80;;
44440;SDS011;30146;52.268;20.944;2023-03-11T09:27:24;21.10;;;13.30;;
44440;SDS011;30146;52.268;20.944;2023-03-11T09:29:56;21.50;;;12.80;;
44440;SDS011;30146;52.268;20.944;2023-03-11T09:32:27;25.80;;;15.30;;
44440;SDS011;30146;52.268;20.944;2023-03-11T09:34:58;25.80;;;15.80;;
44440;SDS011;30146;52.268;20.944;2023-03-11T09:37:29;26.60;;;15.80;;
44440;SDS011;30146;52.268;20.944;2023-03-11T09:40:09;23.60;;;14.80;;
44440;SDS011;30146;52.268;20.944;2023-03-11T09:42:44;28.60;;;16.70;;
44440;SDS011;30146;52.268;20.944;2023-03-11T09:45:31;28.60;;;17.10;;
44440;SDS011;30146;52.268;20.944;2023-03-11T09:51:50;31.90;;;17.60;;
44440;SDS011;30146;52.268;20.944;2023-03-11T09:54:31;30.90;;;18.70;;
44440;SDS011;30146;52.268;20.944;2023-03-11T09:57:10;27.10;;;17.80;;
44440;SDS011;30146;52.268;20.944;2023-03-11T09:59:48;24.80;;;15.10;;
44440;SDS011;30146;52.268;20.944;2023-03-11T10:02:21;19.50;;;12.90;;
44440;SDS011;30146;52.268;20.944;2023-03-11T10:04:55;20.40;;;12.10;;
44440;SDS011;30146;52.268;20.944;2023-03-11T10:07:33;17.70;;;11.40;;
44440;SDS011;30146;52.268;20.944;2023-03-11T10:10:12;17.10;;;10.20;;
44440;SDS011;30146;52.268;20.944;2023-03-11T10:12:48;16.60;;;10.10;;
44440;SDS011;30146;52.268;20.944;2023-03-11T10:15:30;15.90;;;9.90;;
44440;SDS011;30146;52.268;20.944;2023-03-11T10:18:19;13.50;;;8.80;;
44440;SDS011;30146;52.268;20.944;2023-03-11T10:21:06;12.70;;;8.30;;
44440;SDS011;30146;52.268;20.944;2023-03-11T10:23:59;10.70;;;7.50;;
44440;SDS011;30146;52.268;20.944;2023-03-11T10:26:42;10.90;;;7.70;;
44440;SDS011;30146;52.268;20.944;2023-03-11T10:29:18;11.00;;;7.30;;
44440;SDS011;30146;52.268;20.944;2023-03-11T10:31:55;9.70;;;7.10;;
44440;SDS011;30146;52.268;20.944;2023-03-11T10:34:34;7.90;;;6.40;;
44440;SDS011;30146;52.268;20.944;2023-03-11T10:37:12;8.40;;;6.40;;
44440;SDS011;30146;52.268;20.944;2023-03-11T10:39:46;19.00;;;12.10;;
44440;SDS011;30146;52.268;20.944;2023-03-11T10:42:17;10.20;;;7.00;;
44440;SDS011;30146;52.268;20.944;2023-03-11T10:44:51;7.60;;;6.10;;
44440;SDS011;30146;52.268;20.944;2023-03-11T10:47:23;8.50;;;5.50;;
44440;SDS011;30146;52.268;20.944;2023-03-11T10:49:55;6.60;;;5.90;;
44440;SDS011;30146;52.268;20.944;2023-03-11T10:52:26;7.40;;;6.20;;
44440;SDS011;30146;52.268;20.944;2023-03-11T10:55:01;7.00;;;6.10;;
44440;SDS011;30146;52.268;20.944;2023-03-11T10:57:33;6.70;;;5.90;;
44440;SDS011;30146;52.268;20.944;2023-03-11T11:00:08;12.60;;;6.10;;
44440;SDS011;30146;52.268;20.944;2023-03-11T11:02:56;7.70;;;5.80;;
44440;SDS011;30146;52.268;20.944;2023-03-11T11:05:31;6.20;;;5.60;;
44440;SDS011;30146;52.268;20.944;2023-03-11T11:08:06;6.70;;;5.50;;
44440;SDS011;30146;52.268;20.944;2023-03-11T11:10:51;8.20;;;5.30;;
44440;SDS011;30146;52.268;20.944;2023-03-11T11:13:23;5.10;;;4.60;;
44440;SDS011;30146;52.268;20.944;2023-03-11T11:15:58;5.20;;;4.70;;
44440;SDS011;30146;52.268;20.944;2023-03-11T11:18:32;5.10;;;4.30;;
44440;SDS011;30146;52.268;20.944;2023-03-11T11:21:06;5.10;;;4.10;;
44440;SDS011;30146;52.268;20.944;2023-03-11T11:23:41;4.60;;;4.10;;
44440;SDS011;30146;52.268;20.944;2023-03-11T11:26:17;6.20;;;4.00;;
44440;SDS011;30146;52.268;20.944;2023-03-11T11:29:04;5.70;;;3.70;;
44440;SDS011;30146;52.268;20.944;2023-03-11T11:31:42;3.60;;;3.30;;
44440;SDS011;30146;52.268;20.944;2023-03-11T11:34:25;6.10;;;3.70;;
44440;SDS011;30146;52.268;20.944;2023-03-11T11:36:59;5.50;;;3.40;;
44440;SDS011;30146;52.268;20.944;2023-03-11T11:39:35;4.50;;;3.40;;
44440;SDS011;30146;52.268;20.944;2023-03-11T11:44:50;6.90;;;5.20;;
44440;SDS011;30146;52.268;20.944;2023-03-11T11:47:26;5.70;;;4.40;;
44440;SDS011;30146;52.268;20.944;2023-03-11T11:50:03;4.10;;;3.70;;
44440;SDS011;30146;52.268;20.944;2023-03-11T11:52:42;4.60;;;3.80;;
44440;SDS011;30146;52.268;20.944;2023-03-11T11:55:17;5.00;;;4.00;;
44440;SDS011;30146;52.268;20.944;2023-03-11T11:57:52;4.70;;;4.30;;
44440;SDS011;30146;52.268;20.944;2023-03-11T12:00:26;5.00;;;4.30;;
44440;SDS011;30146;52.268;20.944;2023-03-11T12:03:08;10.40;;;7.50;;
44440;SDS011;30146;52.268;20.944;2023-03-11T12:05:53;5.70;;;4.40;;
44440;SDS011;30146;52.268;20.944;2023-03-11T12:08:29;5.50;;;4.60;;
44440;SDS011;30146;52.268;20.944;2023-03-11T12:11:07;7.20;;;5.40;;
44440;SDS011;30146;52.268;20.944;2023-03-11T12:13:48;6.20;;;5.00;;
44440;SDS011;30146;52.268;20.944;2023-03-11T12:16:33;7.20;;;5.20;;
44440;SDS011;30146;52.268;20.944;2023-03-11T12:19:14;6.00;;;5.40;;
44440;SDS011;30146;52.268;20.944;2023-03-11T12:21:54;6.20;;;5.20;;
44440;SDS011;30146;52.268;20.944;2023-03-11T12:24:48;5.90;;;5.30;;
44440;SDS011;30146;52.268;20.944;2023-03-11T12:27:30;6.10;;;5.50;;
44440;SDS011;30146;52.268;20.944;2023-03-11T12:30:11;6.50;;;5.80;;
44440;SDS011;30146;52.268;20.944;2023-03-11T12:32:48;6.90;;;6.20;;
44440;SDS011;30146;52.268;20.944;2023-03-11T12:35:23;7.30;;;5.50;;
44440;SDS011;30146;52.268;20.944;2023-03-11T12:38:00;6.40;;;5.30;;
44440;SDS011;30146;52.268;20.944;2023-03-11T12:40:42;7.10;;;5.60;;
44440;SDS011;30146;52.268;20.944;2023-03-11T12:49:49;7.30;;;5.60;;
44440;SDS011;30146;52.268;20.944;2023-03-11T12:52:23;8.30;;;6.00;;
44440;SDS011;30146;52.268;20.944;2023-03-11T13:01:11;6.90;;;6.20;;
44440;SDS011;30146;52.268;20.944;2023-03-11T13:04:16;7.10;;;5.60;;
44440;SDS011;30146;52.268;20.944;2023-03-11T13:07:16;6.10;;;5.20;;
44440;SDS011;30146;52.268;20.944;2023-03-11T13:10:14;8.50;;;5.90;;
44440;SDS011;30146;52.268;20.944;2023-03-11T13:13:01;6.00;;;4.80;;
44440;SDS011;30146;52.268;20.944;2023-03-11T13:15:49;8.60;;;5.30;;
44440;SDS011;30146;52.268;20.944;2023-03-11T13:18:22;6.90;;;5.70;;
44440;SDS011;30146;52.268;20.944;2023-03-11T13:20:55;6.50;;;5.30;;
44440;SDS011;30146;52.268;20.944;2023-03-11T13:29:16;8.60;;;5.80;;
44440;SDS011;30146;52.268;20.944;2023-03-11T13:35:03;6.00;;;5.20;;
44440;SDS011;30146;52.268;20.944;2023-03-11T13:37:43;8.70;;;6.00;;
44440;SDS011;30146;52.268;20.944;2023-03-11T13:40:27;6.70;;;5.70;;
44440;SDS011;30146;52.268;20.944;2023-03-11T13:43:01;7.00;;;5.30;;
44440;SDS011;30146;52.268;20.944;2023-03-11T13:45:36;9.30;;;5.10;;
44440;SDS011;30146;52.268;20.944;2023-03-11T13:48:12;8.40;;;5.50;;
44440;SDS011;30146;52.268;20.944;2023-03-11T13:50:48;6.90;;;5.40;;
44440;SDS011;30146;52.268;20.944;2023-03-11T13:53:24;7.50;;;5.70;;
44440;SDS011;30146;52.268;20.944;2023-03-11T13:56:00;5.80;;;5.00;;
44440;SDS011;30146;52.268;20.944;2023-03-11T13:58:32;8.30;;;5.50;;
44440;SDS011;30146;52.268;20.944;2023-03-11T14:01:03;6.00;;;5.30;;
44440;SDS011;30146;52.268;20.944;2023-03-11T14:03:35;8.90;;;5.70;;
44440;SDS011;30146;52.268;20.944;2023-03-11T14:06:12;7.90;;;5.50;;
44440;SDS011;30146;52.268;20.944;2023-03-11T14:08:52;9.70;;;5.70;;
44440;SDS011;30146;52.268;20.944;2023-03-11T14:11:26;10.40;;;5.70;;
44440;SDS011;30146;52.268;20.944;2023-03-11T14:13:57;6.40;;;5.40;;
44440;SDS011;30146;52.268;20.944;2023-03-11T14:16:29;8.00;;;5.50;;
44440;SDS011;30146;52.268;20.944;2023-03-11T14:19:13;7.40;;;5.50;;
44440;SDS011;30146;52.268;20.944;2023-03-11T14:21:48;7.50;;;5.90;;
44440;SDS011;30146;52.268;20.944;2023-03-11T14:24:21;10.10;;;6.10;;
44440;SDS011;30146;52.268;20.944;2023-03-11T14:26:54;8.40;;;5.10;;
44440;SDS011;30146;52.268;20.944;2023-03-11T14:29:31;7.50;;;4.80;;
44440;SDS011;30146;52.268;20.944;2023-03-11T14:32:15;10.80;;;5.10;;
44440;SDS011;30146;52.268;20.944;2023-03-11T14:34:53;11.60;;;7.10;;
44440;SDS011;30146;52.268;20.944;2023-03-11T14:37:26;9.50;;;6.10;;
44440;SDS011;30146;52.268;20.944;2023-03-11T14:40:01;8.50;;;5.60;;
44440;SDS011;30146;52.268;20.944;2023-03-11T14:42:50;9.90;;;5.70;;
44440;SDS011;30146;52.268;20.944;2023-03-11T14:45:23;6.20;;;5.40;;
44440;SDS011;30146;52.268;20.944;2023-03-11T14:47:57;9.40;;;5.50;;
44440;SDS011;30146;52.268;20.944;2023-03-11T14:50:32;8.70;;;5.60;;
44440;SDS011;30146;52.268;20.944;2023-03-11T14:53:05;5.70;;;5.00;;
44440;SDS011;30146;52.268;20.944;2023-03-11T14:55:44;6.40;;;5.00;;
44440;SDS011;30146;52.268;20.944;2023-03-11T14:58:19;6.60;;;4.70;;
44440;SDS011;30146;52.268;20.944;2023-03-11T15:00:57;7.40;;;4.90;;
44440;SDS011;30146;52.268;20.944;2023-03-11T15:03:32;7.90;;;4.30;;
44440;SDS011;30146;52.268;20.944;2023-03-11T15:06:07;8.50;;;5.30;;
44440;SDS011;30146;52.268;20.944;2023-03-11T15:08:42;5.80;;;4.70;;
44440;SDS011;30146;52.268;20.944;2023-03-11T15:11:21;11.30;;;5.00;;
44440;SDS011;30146;52.268;20.944;2023-03-11T15:14:07;7.20;;;4.60;;
44440;SDS011;30146;52.268;20.944;2023-03-11T15:16:45;6.60;;;5.10;;
44440;SDS011;30146;52.268;20.944;2023-03-11T15:19:28;7.00;;;4.90;;
44440;SDS011;30146;52.268;20.944;2023-03-11T15:22:04;10.70;;;4.70;;
44440;SDS011;30146;52.268;20.944;2023-03-11T15:24:53;7.10;;;4.50;;
44440;SDS011;30146;52.268;20.944;2023-03-11T15:27:30;6.20;;;4.60;;
44440;SDS011;30146;52.268;20.944;2023-03-11T15:30:04;7.50;;;4.70;;
44440;SDS011;30146;52.268;20.944;2023-03-11T15:32:50;8.30;;;4.60;;
44440;SDS011;30146;52.268;20.944;2023-03-11T15:35:24;6.80;;;4.20;;